Time;durP1;ratioP1;P1;durP2;ratioP2;P2;SDS_P1;SDS_P2;PMS_P1;PMS_P2;Temp;Humidity;BMP_temperature;BMP_pressure;BME280_temperature;BME280_humidity;BME280_pressure;Samples;Min_cycle;Max_cycle;Signal;HPM_P1;HPM_P2
2022/06/02 00:01:33;;;;;;;2.30;2.10;;;13.40;55.90;;;12.21;60.99;98012.31;4925080;28;20470;-72
2022/06/02 00:04:12;;;;;;;5.17;2.17;;;13.30;56.10;;;12.12;61.58;98012.63;5015288;28;20467;-75
2022/06/02 00:06:45;;;;;;;2.20;2.10;;;13.20;56.40;;;12.11;61.44;98010.13;4990947;28;20532;-69
2022/06/02 00:09:34;;;;;;;2.00;1.80;;;13.20;56.50;;;11.92;61.88;98022.84;5008787;28;20487;-70
2022/06/02 00:12:11;;;;;;;2.20;2.00;;;13.10;56.40;;;11.85;62.45;98029.13;4988301;28;20457;-71
2022/06/02 00:14:49;;;;;;;2.20;2.10;;;12.90;56.70;;;11.71;62.02;98033.00;4999105;28;20471;-72
2022/06/02 00:17:33;;;;;;;1.90;1.80;;;12.80;56.60;;;11.64;62.09;98038.47;4992576;28;20533;-71
2022/06/02 00:20:08;;;;;;;2.00;1.90;;;12.80;56.70;;;11.56;61.44;98033.38;4978687;28;20453;-69
2022/06/02 00:22:52;;;;;;;1.80;1.70;;;12.70;56.50;;;11.61;61.80;98033.50;4977537;28;20503;-74
2022/06/02 00:25:28;;;;;;;2.63;2.30;;;12.70;56.60;;;11.52;62.64;98046.50;4988429;28;20480;-72
2022/06/02 00:28:06;;;;;;;2.27;1.90;;;12.60;56.80;;;11.40;62.76;98054.50;4981040;28;20997;-74
2022/06/02 00:30:42;;;;;;;2.10;1.93;;;12.60;57.10;;;11.29;63.08;98052.50;4983448;28;20540;-72
2022/06/02 00:33:23;;;;;;;1.80;1.70;;;12.40;57.20;;;11.29;63.23;98055.22;4981586;28;20461;-74
2022/06/02 00:35:55;;;;;;;2.40;2.20;;;12.40;57.40;;;11.22;63.37;98051.69;4988800;28;20531;-75
2022/06/02 00:38:27;;;;;;;2.27;2.17;;;12.40;57.70;;;11.20;63.59;98070.88;4985201;28;20890;-75
2022/06/02 00:40:56;;;;;;;2.40;2.20;;;12.30;57.70;;;11.15;63.81;98062.59;4985614;28;20804;-74
2022/06/02 00:43:58;;;;;;;2.37;2.00;;;12.30;57.90;;;11.02;64.34;98077.00;4984734;28;20544;-72
2022/06/02 00:46:39;;;;;;;2.50;2.20;;;12.20;58.20;;;10.99;64.82;98075.56;5000110;28;21196;-70
2022/06/02 00:49:15;;;;;;;1.80;1.70;;;12.10;58.50;;;10.95;63.65;98085.16;4983863;28;20454;-76
2022/06/02 00:51:58;;;;;;;2.07;1.97;;;12.10;58.60;;;10.87;64.80;98086.22;5000212;28;20581;-72
2022/06/02 00:57:35;;;;;;;2.60;2.40;;;12.10;59.00;;;10.86;64.31;98086.47;4984150;28;20532;-70
2022/06/02 01:00:24;;;;;;;2.60;2.37;;;12.00;59.00;;;11.02;64.38;98085.97;5043950;28;20470;-79
2022/06/02 01:02:56;;;;;;;2.67;2.30;;;12.00;59.30;;;11.01;64.07;98084.31;4989411;28;20833;-80
2022/06/02 01:06:09;;;;;;;12.40;2.70;;;12.10;59.10;;;10.83;64.68;98087.72;4975286;28;20538;-71
2022/06/02 01:09:01;;;;;;;2.90;2.70;;;12.00;59.20;;;10.70;65.14;98098.59;4967942;28;20468;-71
2022/06/02 01:11:38;;;;;;;2.47;2.33;;;11.90;59.70;;;10.84;65.20;98088.53;4983785;28;20902;-70
2022/06/02 01:14:22;;;;;;;2.23;2.13;;;11.80;60.00;;;10.73;64.87;98090.88;4975476;28;20553;-74
2022/06/02 01:17:00;;;;;;;2.63;2.43;;;11.80;59.90;;;10.60;65.69;98096.34;4980574;28;20632;-69
2022/06/02 01:20:06;;;;;;;2.20;2.03;;;11.70;60.20;;;10.65;65.47;98090.31;4977348;28;20462;-73
2022/06/02 01:23:00;;;;;;;2.47;2.13;;;11.60;60.90;;;10.69;66.21;98103.16;4990863;28;20469;-76
2022/06/02 01:25:59;;;;;;;2.50;2.30;;;11.70;61.30;;;10.61;65.68;98095.28;5004966;28;20454;-72
2022/06/02 01:28:46;;;;;;;2.90;2.60;;;11.70;61.20;;;10.57;65.60;98110.28;4992064;28;20545;-72
2022/06/02 01:31:24;;;;;;;3.20;2.53;;;11.60;61.10;;;10.69;65.40;98094.22;4984363;28;20782;-71
2022/06/02 01:34:01;;;;;;;2.80;2.57;;;11.80;60.90;;;10.87;65.03;98088.94;4983537;28;20976;-72
2022/06/02 01:36:38;;;;;;;2.57;2.30;;;11.90;61.10;;;10.91;64.02;98090.16;5016178;28;20551;-75
2022/06/02 01:39:26;;;;;;;2.57;2.30;;;11.90;60.60;;;10.73;65.07;98093.59;4990436;28;20514;-71
2022/06/02 01:42:04;;;;;;;2.70;2.47;;;11.80;60.90;;;10.59;65.71;98086.56;4986699;28;20463;-74
2022/06/02 01:44:42;;;;;;;2.63;2.43;;;11.70;61.20;;;10.53;66.00;98087.41;4995149;28;20526;-71
2022/06/02 01:47:19;;;;;;;5.33;2.63;;;11.60;61.60;;;10.32;66.13;98089.31;4987093;28;20511;-75
2022/06/02 01:50:12;;;;;;;3.13;2.30;;;11.40;61.90;;;10.14;67.34;98092.69;4974902;28;20450;-73
2022/06/02 01:52:54;;;;;;;2.40;2.30;;;11.20;62.40;;;10.21;67.38;98097.03;5020684;27;20448;-74
2022/06/02 01:55:58;;;;;;;2.63;2.43;;;11.20;63.40;;;10.03;68.28;98092.31;4983249;28;20611;-71
2022/06/02 01:58:48;;;;;;;2.80;2.60;;;11.10;63.50;;;9.88;68.50;98097.09;4979369;28;20456;-71
2022/06/02 02:01:25;;;;;;;2.73;2.53;;;11.00;64.30;;;9.76;68.12;98099.56;4973657;28;20518;-72
2022/06/02 02:04:04;;;;;;;3.30;2.63;;;10.90;64.70;;;9.73;68.94;98094.59;4988950;28;20543;-72
2022/06/02 02:06:41;;;;;;;2.60;2.40;;;10.80;65.50;;;8.93;69.20;97988.38;4992995;28;20530;-74
2022/06/02 02:09:17;;;;;;;2.47;2.27;;;10.80;66.30;;;9.70;69.17;98114.72;4983486;28;20554;-76
2022/06/02 02:11:50;;;;;;;2.90;2.53;;;10.70;66.30;;;9.62;69.11;98106.84;4984608;28;20460;-70
2022/06/02 02:14:43;;;;;;;2.53;2.33;;;10.70;66.30;;;9.82;68.32;98090.66;4981127;28;20461;-72
2022/06/02 02:17:42;;;;;;;3.83;3.30;;;10.80;67.10;;;9.80;68.16;98110.78;4975981;28;20829;-76
2022/06/02 02:20:25;;;;;;;2.83;2.63;;;10.90;66.10;;;9.78;68.63;98119.09;4996567;28;20444;-71
2022/06/02 02:23:02;;;;;;;3.37;3.17;;;10.80;66.60;;;9.79;69.22;98115.38;4996913;28;20469;-73
2022/06/02 02:25:40;;;;;;;3.33;3.00;;;10.80;66.90;;;9.73;68.89;98121.59;4992250;28;21093;-77
2022/06/02 02:28:17;;;;;;;3.40;3.10;;;10.80;67.10;;;9.82;69.51;98119.50;5016754;28;20499;-71
2022/06/02 02:31:10;;;;;;;3.13;2.83;;;10.80;67.40;;;9.82;67.93;98109.56;5013147;28;21012;-70
2022/06/02 02:33:51;;;;;;;2.93;2.73;;;10.90;66.60;;;9.76;68.92;98105.81;5000500;28;20957;-70
2022/06/02 02:36:28;;;;;;;2.83;2.23;;;10.90;66.70;;;9.72;68.85;98115.38;4975829;28;20468;-72
2022/06/02 02:39:03;;;;;;;3.03;2.83;;;10.80;66.60;;;9.72;68.50;98125.31;4984602;28;20478;-71
2022/06/02 02:41:41;;;;;;;2.93;2.70;;;10.80;66.90;;;9.56;68.53;98116.59;4981563;28;20467;-73
2022/06/02 02:44:17;;;;;;;4.70;2.60;;;10.70;66.80;;;9.69;68.39;98120.34;4996709;28;20512;-76
2022/06/02 02:46:55;;;;;;;2.83;2.60;;;10.70;67.00;;;9.72;68.44;98128.03;4979189;28;20484;-72
2022/06/02 02:49:30;;;;;;;2.80;2.60;;;10.70;67.20;;;9.58;68.64;98127.19;4999563;28;20447;-71
2022/06/02 02:52:06;;;;;;;2.90;2.70;;;10.70;66.60;;;9.61;68.24;98130.28;5009594;28;20459;-71
2022/06/02 02:54:47;;;;;;;3.13;2.80;;;10.60;67.00;;;9.40;69.07;98125.09;4982848;28;20535;-73
2022/06/02 02:57:24;;;;;;;3.30;3.10;;;10.60;67.30;;;9.34;69.26;98135.66;4983899;28;20851;-78
2022/06/02 02:59:58;;;;;;;3.10;2.90;;;10.50;67.50;;;9.35;69.21;98136.47;5029477;28;20531;-74
2022/06/02 03:02:33;;;;;;;3.47;3.27;;;10.40;67.80;;;9.46;69.41;98141.28;4987844;28;20467;-73
2022/06/02 03:05:08;;;;;;;3.30;3.10;;;10.50;67.90;;;9.55;69.02;98147.31;4992239;28;20883;-73
2022/06/02 03:07:37;;;;;;;3.30;2.90;;;10.60;68.00;;;9.41;69.58;98145.63;4979338;28;20482;-75
2022/06/02 03:10:09;;;;;;;3.33;3.13;;;10.50;68.10;;;9.37;69.59;98141.69;5016505;28;20862;-76
2022/06/02 03:13:12;;;;;;;3.10;2.90;;;10.50;68.30;;;9.31;70.60;98162.22;4980844;28;20486;-70
2022/06/02 03:15:44;;;;;;;3.50;3.20;;;10.50;68.40;;;9.41;70.04;98161.81;4981331;28;20496;-84
2022/06/02 03:18:28;;;;;;;3.50;3.17;;;10.50;69.10;;;9.50;70.03;98155.19;4986040;28;20605;-78
2022/06/02 03:21:02;;;;;;;3.97;3.10;;;10.60;69.10;;;9.52;69.83;98163.91;4999272;28;20513;-80
2022/06/02 03:24:07;;;;;;;4.43;3.27;;;10.60;69.30;;;9.44;70.48;98166.78;5015861;28;20468;-70
2022/06/02 03:26:53;;;;;;;3.40;3.10;;;10.60;69.60;;;9.19;71.41;98175.44;5029683;27;20568;-71
2022/06/02 03:29:34;;;;;;;3.70;3.40;;;10.40;70.00;;;9.18;72.42;98163.81;4993243;28;20548;-71
2022/06/02 03:32:10;;;;;;;4.77;4.00;;;10.30;71.20;;;9.22;72.50;98164.25;4981949;28;20547;-74
2022/06/02 03:34:50;;;;;;;4.40;3.60;;;10.30;71.50;;;9.17;72.81;98164.84;4997512;28;20455;-71
2022/06/02 03:37:37;;;;;;;4.63;3.60;;;10.30;71.80;;;8.92;73.99;98173.47;4984421;28;21065;-79
2022/06/02 03:40:24;;;;;;;4.27;3.97;;;10.20;72.80;;;9.07;73.53;98167.94;4987384;28;20465;-75
2022/06/02 03:43:06;;;;;;;3.70;3.40;;;10.20;73.50;;;9.01;74.13;98170.63;5005814;28;20472;-71
2022/06/02 03:46:02;;;;;;;3.67;3.37;;;10.20;73.70;;;9.09;73.84;98178.50;4981627;28;20458;-75
2022/06/02 03:49:07;;;;;;;4.73;4.33;;;10.20;74.10;;;9.07;74.32;98176.03;4996434;28;20545;-72
2022/06/02 03:51:47;;;;;;;3.83;3.53;;;10.30;74.30;;;9.23;74.06;98174.00;5007307;28;20487;-71
2022/06/02 03:54:38;;;;;;;4.50;4.10;;;10.30;74.40;;;9.21;74.06;98184.97;4977165;28;20469;-75
2022/06/02 03:57:22;;;;;;;5.13;4.00;;;10.40;74.50;;;9.18;73.52;98181.88;4973942;28;20594;-70
2022/06/02 04:00:19;;;;;;;7.30;3.90;;;10.30;74.40;;;9.21;73.75;98187.69;4980185;28;20468;-74
2022/06/02 04:02:53;;;;;;;5.50;3.87;;;10.40;74.60;;;9.52;73.05;98188.19;4983485;28;20492;-73
2022/06/02 04:05:46;;;;;;;4.27;3.87;;;10.60;74.50;;;10.10;70.92;98189.47;4977807;28;20460;-71
2022/06/02 04:08:42;;;;;;;3.90;3.60;;;11.20;73.40;;;11.30;66.63;98184.84;4980008;28;20475;-75
2022/06/02 04:11:24;;;;;;;3.93;3.53;;;12.10;71.00;;;12.40;62.48;98183.84;4985936;28;20495;-79
2022/06/02 04:14:03;;;;;;;4.93;3.60;;;13.30;67.50;;;13.08;59.95;98182.06;4981391;28;20531;-72
2022/06/02 04:16:53;;;;;;;4.70;3.53;;;14.10;64.70;;;13.76;57.13;98182.00;4979621;28;20461;-73
2022/06/02 04:23:07;;;;;;;3.57;3.27;;;15.40;59.30;;;13.93;55.13;98149.53;4988706;28;20509;-75
2022/06/02 04:25:54;;;;;;;3.17;2.97;;;15.50;58.10;;;14.41;55.27;98190.38;4977967;28;20985;-73
2022/06/02 04:28:39;;;;;;;5.13;3.30;;;15.80;57.80;;;14.92;53.48;98204.28;4977772;28;20574;-72
2022/06/02 04:31:30;;;;;;;4.80;2.90;;;16.20;57.40;;;14.95;53.22;98202.97;4995848;28;20538;-78
2022/06/02 04:34:10;;;;;;;3.87;3.50;;;16.40;56.00;;;15.30;51.82;98216.50;4978380;28;20467;-85
2022/06/02 04:36:46;;;;;;;3.17;2.97;;;16.50;56.10;;;15.48;51.75;98206.50;4990470;28;20461;-73
2022/06/02 04:39:25;;;;;;;5.00;3.50;;;16.70;55.60;;;15.38;53.37;98212.56;4975027;28;20551;-75
2022/06/02 04:42:07;;;;;;;3.07;2.80;;;17.00;55.40;;;15.97;50.82;98202.50;5015882;28;20452;-76
2022/06/02 04:44:41;;;;;;;3.53;3.33;;;17.30;54.60;;;16.34;50.06;98212.94;4995121;28;20460;-76
2022/06/02 04:47:22;;;;;;;3.50;3.20;;;17.80;54.20;;;15.88;51.04;98198.50;4976942;28;21077;-77
2022/06/02 04:50:02;;;;;;;3.50;3.30;;;17.60;53.70;;;15.74;50.41;98185.19;4993459;28;20474;-76
2022/06/02 04:52:43;;;;;;;4.17;3.77;;;17.40;53.30;;;15.99;50.40;98200.34;4977584;28;20453;-78
2022/06/02 04:55:19;;;;;;;3.93;3.53;;;17.40;53.50;;;15.88;50.81;98212.13;4972740;28;20547;-77
2022/06/02 04:57:54;;;;;;;3.10;2.80;;;17.10;53.70;;;16.32;49.66;98204.19;4993340;28;20459;-75
2022/06/02 05:00:30;;;;;;;6.40;2.63;;;17.60;53.00;;;16.99;48.15;98207.88;4980357;28;20451;-76
2022/06/02 05:03:09;;;;;;;3.37;3.07;;;18.40;52.50;;;17.25;46.89;98210.94;4974575;28;20911;-76
2022/06/02 05:05:45;;;;;;;3.03;2.73;;;18.60;51.60;;;17.25;46.40;98204.66;4989931;28;20536;-77
2022/06/02 05:08:42;;;;;;;3.00;2.80;;;19.00;51.10;;;16.38;48.41;98211.34;4987626;28;20482;-76
2022/06/02 05:11:26;;;;;;;2.50;2.40;;;17.80;51.80;;;16.56;48.90;98210.25;4987138;28;20459;-77
2022/06/02 05:14:05;;;;;;;2.70;2.50;;;17.80;52.00;;;16.48;48.15;98218.84;5000369;28;20539;-78
2022/06/02 05:16:47;;;;;;;3.73;3.27;;;17.80;51.70;;;16.77;47.92;98220.66;4995795;28;20530;-79
2022/06/02 05:19:34;;;;;;;5.43;2.63;;;18.00;52.10;;;17.33;46.92;98217.03;4999069;28;20918;-80
2022/06/02 05:22:42;;;;;;;3.20;2.90;;;18.50;51.50;;;17.51;46.34;98229.53;5014930;28;21109;-77
2022/06/02 05:25:56;;;;;;;3.47;2.80;;;18.80;50.40;;;16.19;49.14;98231.75;4991923;28;20531;-78
2022/06/02 05:29:13;;;;;;;3.43;3.20;;;18.10;50.90;;;16.27;49.14;98185.84;4980137;28;20484;-79
2022/06/02 05:32:24;;;;;;;3.73;3.30;;;17.90;51.50;;;16.94;47.61;98236.97;5007418;28;20524;-80
2022/06/02 05:35:25;;;;;;;3.13;2.93;;;18.70;51.40;;;18.35;45.25;98230.09;5004801;28;20457;-79
2022/06/02 05:38:24;;;;;;;3.20;2.97;;;19.80;50.60;;;19.03;43.09;98227.81;5014350;28;20467;-77
2022/06/02 05:41:10;;;;;;;3.20;2.93;;;20.50;50.00;;;18.58;43.60;98181.56;4985362;28;20499;-77
2022/06/02 05:43:49;;;;;;;3.70;3.40;;;20.10;49.40;;;18.58;44.34;98236.28;4988675;28;20472;-73
2022/06/02 05:46:38;;;;;;;2.90;2.70;;;20.30;49.50;;;18.57;43.72;98237.34;4978798;28;20456;-73
2022/06/02 05:49:25;;;;;;;3.27;3.07;;;20.10;48.90;;;18.80;42.96;98243.53;5011520;28;20444;-74
2022/06/02 05:52:06;;;;;;;3.00;2.70;;;20.00;49.20;;;18.14;44.99;98241.94;5028807;27;20456;-74
2022/06/02 05:54:43;;;;;;;4.90;3.40;;;20.40;48.60;;;18.91;42.93;98239.78;4983625;28;20494;-76
2022/06/02 05:57:30;;;;;;;2.80;2.60;;;20.40;48.60;;;19.17;42.11;98248.16;4981224;28;20460;-77
2022/06/02 06:00:20;;;;;;;2.70;2.47;;;20.50;48.20;;;19.02;42.58;98245.31;4981145;28;20498;-75
2022/06/02 06:03:28;;;;;;;3.80;2.77;;;20.40;48.20;;;19.17;41.78;98234.44;4985307;28;20472;-75
2022/06/02 06:06:03;;;;;;;6.10;2.90;;;20.50;47.80;;;18.11;43.99;98246.03;5017702;28;20482;-75
2022/06/02 06:08:52;;;;;;;4.60;2.63;;;20.20;47.70;;;18.04;44.29;98238.03;4989251;28;20604;-73
2022/06/02 06:11:38;;;;;;;3.80;3.30;;;19.80;47.80;;;17.41;46.09;98250.16;4992274;28;20480;-79
2022/06/02 06:14:27;;;;;;;5.37;2.67;;;19.50;48.30;;;17.52;45.71;98247.56;4986814;28;20494;-73
2022/06/02 06:17:05;;;;;;;3.00;2.80;;;19.30;48.30;;;18.09;44.51;98243.53;4996246;28;20462;-82
2022/06/02 06:19:50;;;;;;;3.23;2.60;;;19.60;48.60;;;18.15;43.16;98195.19;4997217;28;20499;-80
2022/06/02 06:22:52;;;;;;;3.40;2.53;;;20.20;47.80;;;18.03;43.84;98247.31;4990048;28;20489;-84
2022/06/02 06:25:38;;;;;;;3.23;2.97;;;20.20;47.40;;;15.91;48.79;98200.75;4985517;28;20882;-83
2022/06/02 06:28:15;;;;;;;2.57;2.37;;;18.60;48.60;;;15.33;50.68;98258.75;4975449;28;20479;-79
2022/06/02 06:30:59;;;;;;;2.80;2.60;;;17.10;49.50;;;14.76;51.69;98254.81;5005449;28;20990;-72
2022/06/02 06:33:52;;;;;;;3.07;2.57;;;16.40;50.50;;;14.33;52.96;98256.78;4975052;28;20503;-74
2022/06/02 06:36:41;;;;;;;2.80;2.60;;;15.80;51.20;;;13.94;53.94;98259.03;4973427;28;21046;-76
2022/06/02 06:39:25;;;;;;;2.60;2.40;;;15.30;52.10;;;13.96;54.05;98270.50;4982338;28;20685;-80
2022/06/02 06:42:10;;;;;;;2.57;2.23;;;15.20;52.70;;;14.06;54.72;98262.63;4977297;28;20467;-83
2022/06/02 06:44:45;;;;;;;4.33;2.57;;;15.10;53.10;;;14.07;54.25;98264.28;4993454;28;20452;-86
2022/06/02 06:47:19;;;;;;;2.80;2.20;;;15.20;53.20;;;14.19;53.97;98268.91;4981698;28;20469;-82
2022/06/02 06:49:58;;;;;;;2.30;2.20;;;15.30;53.10;;;14.16;53.82;98268.28;4993571;28;20481;-85
2022/06/02 06:53:17;;;;;;;3.47;2.47;;;15.20;52.90;;;14.32;53.23;98265.97;4989891;28;20458;-82
2022/06/02 06:56:02;;;;;;;2.53;2.33;;;15.30;52.80;;;14.50;52.80;98272.38;4959895;28;20471;-82
2022/06/02 06:58:58;;;;;;;3.20;2.40;;;15.50;52.60;;;14.50;53.29;98264.22;4995861;28;20494;-89
2022/06/02 07:01:39;;;;;;;2.37;2.17;;;15.50;52.80;;;14.56;51.86;98272.28;5016839;28;20495;-81
2022/06/02 07:04:23;;;;;;;3.37;1.90;;;15.60;52.10;;;14.29;52.18;98234.66;4981122;28;20546;-81
2022/06/02 07:06:57;;;;;;;2.60;2.40;;;15.60;52.20;;;14.53;52.30;98272.72;4985615;28;20509;-81
2022/06/02 07:09:34;;;;;;;6.37;2.50;;;15.60;52.40;;;14.73;50.49;98283.28;4986018;28;20863;-81
2022/06/02 07:15:05;;;;;;;3.10;2.20;;;15.80;51.40;;;14.91;49.34;98283.44;4996526;28;20440;-75
2022/06/02 07:17:43;;;;;;;2.17;1.97;;;15.90;50.80;;;14.97;47.99;98283.31;4994080;28;20505;-77
2022/06/02 07:20:19;;;;;;;4.00;2.33;;;16.00;49.20;;;15.09;49.23;98280.56;5013227;28;21033;-78
2022/06/02 07:22:56;;;;;;;2.23;2.03;;;16.10;50.40;;;15.21;49.78;98288.69;5004643;28;20469;-83
2022/06/02 07:25:30;;;;;;;2.17;2.07;;;16.20;51.00;;;15.19;50.06;98293.56;4978561;28;20455;-78
2022/06/02 07:28:06;;;;;;;2.33;2.13;;;16.20;51.00;;;14.92;49.58;98253.25;5001366;28;20475;-79
2022/06/02 07:30:52;;;;;;;2.77;2.20;;;16.20;50.70;;;15.26;49.01;98275.22;4984423;28;20455;-81
2022/06/02 07:33:44;;;;;;;4.87;2.63;;;16.30;50.80;;;15.35;49.68;98283.00;4970303;28;20563;-80
2022/06/02 07:36:51;;;;;;;2.50;2.30;;;16.30;51.10;;;15.35;49.49;98277.56;5003796;28;20460;-78
2022/06/02 07:40:02;;;;;;;2.67;2.33;;;16.30;50.60;;;15.43;49.51;98279.91;5009186;28;20555;-82
2022/06/02 07:42:55;;;;;;;2.37;2.17;;;16.40;51.10;;;15.66;48.13;98273.56;4975898;28;20458;-81
2022/06/02 07:45:33;;;;;;;3.00;2.10;;;16.60;50.70;;;15.73;48.32;98278.88;4975278;28;21040;-80
2022/06/02 07:48:37;;;;;;;2.20;2.00;;;16.70;50.40;;;15.58;48.55;98244.81;4976608;28;20597;-80
2022/06/02 07:51:18;;;;;;;2.60;2.40;;;16.80;50.70;;;15.88;48.73;98280.22;4975629;28;20462;-77
2022/06/02 07:54:08;;;;;;;2.97;2.40;;;16.80;50.50;;;15.75;48.67;98274.00;4977840;28;20461;-78
2022/06/02 07:56:47;;;;;;;3.13;2.50;;;16.80;50.60;;;15.73;48.52;98278.88;4972957;28;21707;-81
2022/06/02 07:59:25;;;;;;;2.60;2.40;;;16.80;50.40;;;15.73;48.34;98278.88;4981558;28;21094;-80
2022/06/02 08:02:15;;;;;;;3.00;2.30;;;16.80;50.50;;;15.91;48.19;98286.03;4992562;28;20831;-78
2022/06/02 08:04:56;;;;;;;2.30;2.07;;;16.80;50.50;;;15.70;47.80;98295.72;4975802;28;20555;-76
2022/06/02 08:07:29;;;;;;;2.10;2.00;;;16.80;49.90;;;15.83;47.91;98295.41;4972727;28;20462;-79
2022/06/02 08:10:11;;;;;;;3.40;2.27;;;16.80;50.00;;;15.91;47.79;98296.13;5006441;28;20909;-80
2022/06/02 08:12:56;;;;;;;2.40;2.20;;;16.90;49.80;;;15.94;47.71;98291.03;4973831;28;20465;-82
2022/06/02 08:15:38;;;;;;;3.07;2.53;;;17.00;50.00;;;16.32;47.40;98285.13;4959734;28;20460;-78
2022/06/02 08:18:30;;;;;;;2.40;2.20;;;17.10;50.10;;;16.38;45.69;98284.16;4969799;28;20490;-80
2022/06/02 08:21:15;;;;;;;2.43;2.10;;;17.30;49.20;;;16.38;46.05;98295.06;5010760;28;20492;-79
2022/06/02 08:24:20;;;;;;;2.73;2.53;;;17.30;49.30;;;16.30;46.29;98288.09;4976228;28;21070;-80
2022/06/02 08:27:16;;;;;;;1.93;1.83;;;17.30;49.30;;;16.47;46.75;98298.19;4974840;28;20468;-77
2022/06/02 08:30:04;;;;;;;2.20;2.00;;;17.40;49.80;;;16.26;46.17;98295.09;4982140;28;20460;-78
2022/06/02 08:33:04;;;;;;;2.90;2.20;;;17.30;49.00;;;16.21;46.65;98289.56;4976991;28;20543;-81
2022/06/02 08:35:39;;;;;;;4.60;2.53;;;17.20;49.30;;;16.41;45.53;98245.47;4985904;28;20559;-80
2022/06/02 08:38:35;;;;;;;2.10;1.77;;;17.40;49.10;;;17.03;45.05;98283.78;5004583;28;20517;-78
2022/06/02 08:41:56;;;;;;;1.97;1.77;;;17.70;49.00;;;17.28;42.94;98281.41;4977341;28;20462;-77
2022/06/02 08:45:21;;;;;;;2.20;1.93;;;18.00;48.00;;;17.29;43.27;98287.72;4975507;28;20471;-79
2022/06/02 08:48:40;;;;;;;2.20;2.10;;;18.20;47.40;;;17.24;43.56;98290.34;4982277;28;20480;-80
2022/06/02 08:51:45;;;;;;;2.07;1.93;;;18.20;47.70;;;17.08;43.71;98286.59;5010747;28;20514;-79
2022/06/02 08:54:59;;;;;;;1.80;1.70;;;18.10;47.70;;;16.91;43.93;98287.44;4975702;28;20578;-80
2022/06/02 08:58:12;;;;;;;3.07;2.00;;;18.00;47.80;;;17.07;43.25;98295.88;5019786;27;20534;-78
2022/06/02 09:01:03;;;;;;;1.77;1.67;;;17.90;47.70;;;17.22;42.74;98300.72;4979149;28;20555;-74
2022/06/02 09:04:29;;;;;;;3.80;2.03;;;18.10;47.20;;;17.30;42.95;98304.91;4979609;28;20551;-78
2022/06/02 09:07:53;;;;;;;1.80;1.70;;;18.10;47.20;;;17.43;42.62;98299.06;4981524;28;20466;-78
2022/06/02 09:10:36;;;;;;;2.20;1.77;;;18.30;47.00;;;17.73;41.46;98292.34;5014310;28;20468;-78
2022/06/02 09:13:34;;;;;;;3.27;1.90;;;18.50;47.20;;;17.43;41.63;98288.16;4991662;28;20583;-78
2022/06/02 09:16:18;;;;;;;2.87;1.77;;;18.50;46.60;;;17.42;41.68;98313.81;4984399;28;21418;-74
2022/06/02 09:19:06;;;;;;;1.67;1.57;;;18.30;46.30;;;17.54;41.87;98306.34;4999203;28;20457;-75
2022/06/02 09:21:59;;;;;;;3.00;1.93;;;18.40;46.70;;;17.39;42.81;98308.88;5013482;28;20487;-76
2022/06/02 09:24:29;;;;;;;2.20;1.80;;;18.40;46.80;;;17.31;42.02;98301.94;4999839;28;20457;-71
2022/06/02 09:27:33;;;;;;;2.50;1.63;;;18.30;46.40;;;17.57;41.48;98318.63;5002801;28;20460;-75
2022/06/02 09:30:08;;;;;;;1.93;1.50;;;18.40;46.40;;;17.78;40.75;98319.72;5014358;28;20587;-79
2022/06/02 09:33:33;;;;;;;1.67;1.57;;;18.60;46.10;;;17.75;40.74;98305.75;4991525;28;20453;-74
2022/06/02 09:36:03;;;;;;;1.70;1.30;;;18.60;46.00;;;17.99;39.74;98301.63;4992251;28;20459;-78
2022/06/02 09:39:08;;;;;;;1.93;1.67;;;18.80;45.50;;;18.10;39.56;98301.78;4980304;28;21183;-76
2022/06/02 09:41:58;;;;;;;2.20;1.30;;;18.90;45.30;;;18.53;39.02;98304.63;4993789;28;20468;-79
2022/06/02 09:44:29;;;;;;;2.10;1.60;;;19.30;45.30;;;18.49;38.53;98293.38;4982491;28;20480;-71
2022/06/02 09:47:28;;;;;;;2.80;1.70;;;19.30;44.90;;;18.80;38.52;98298.28;4990036;28;20522;-78
2022/06/02 09:50:40;;;;;;;2.50;1.40;;;19.50;45.30;;;18.97;37.78;98292.66;4984542;28;20479;-79
2022/06/02 09:53:42;;;;;;;2.87;1.80;;;19.80;45.20;;;18.82;38.54;98301.56;4976337;28;20460;-76
2022/06/02 09:56:32;;;;;;;1.70;1.60;;;19.70;44.80;;;18.98;37.57;98297.84;4995048;28;20468;-78
2022/06/02 09:59:18;;;;;;;1.50;1.40;;;19.80;44.50;;;19.20;38.25;98298.81;4986651;28;20488;-76
2022/06/02 10:02:06;;;;;;;1.57;1.47;;;19.90;45.30;;;19.49;36.65;98292.94;4984358;28;21722;-79
2022/06/02 10:05:08;;;;;;;2.00;1.80;;;20.20;44.10;;;19.78;37.04;98301.53;4987259;28;20461;-77
2022/06/02 10:07:50;;;;;;;2.13;1.63;;;20.30;44.40;;;19.95;36.39;98300.56;4998908;28;20462;-75
2022/06/02 10:10:58;;;;;;;4.40;1.60;;;20.60;44.10;;;20.13;35.68;98299.19;5001443;28;20464;-79
2022/06/02 10:13:57;;;;;;;1.57;1.47;;;20.80;43.80;;;20.16;35.81;98306.06;4982449;28;20463;-76
2022/06/02 10:17:23;;;;;;;2.53;1.40;;;21.00;44.00;;;20.02;35.77;98298.38;4973927;28;20466;-78
2022/06/02 10:20:23;;;;;;;3.03;1.80;;;20.90;43.70;;;20.31;35.21;98292.38;5011678;28;20441;-75
2022/06/02 10:23:00;;;;;;;2.67;1.77;;;21.10;43.60;;;20.06;35.63;98301.41;4977067;28;20471;-73
2022/06/02 10:25:50;;;;;;;2.00;1.20;;;21.10;43.40;;;20.37;36.31;98302.25;4976439;28;20467;-74
2022/06/02 10:29:21;;;;;;;1.77;1.63;;;21.10;44.30;;;20.60;34.91;98288.25;4984607;28;20986;-74
2022/06/02 10:32:40;;;;;;;1.57;1.47;;;21.30;43.60;;;20.75;33.94;98295.69;4987126;28;20500;-79
2022/06/02 10:36:10;;;;;;;3.20;1.63;;;21.40;43.00;;;21.30;34.04;98284.06;4986515;28;20467;-80
2022/06/02 10:38:48;;;;;;;1.60;1.50;;;21.90;43.30;;;21.02;34.53;98281.66;4983679;28;20471;-76
2022/06/02 10:41:40;;;;;;;1.47;1.40;;;21.80;43.30;;;20.90;34.37;98268.22;4988982;28;20539;-80
2022/06/02 10:44:16;;;;;;;1.93;1.47;;;21.80;43.10;;;20.96;34.50;98302.00;4977689;28;20460;-82
2022/06/02 10:47:46;;;;;;;2.93;1.73;;;21.90;43.10;;;21.09;33.19;98295.09;4975447;28;20511;-78
2022/06/02 10:50:33;;;;;;;1.53;1.43;;;21.90;42.50;;;21.59;33.50;98291.63;4987820;28;20651;-81
2022/06/02 10:53:54;;;;;;;2.60;1.23;;;22.10;42.80;;;21.92;32.59;98286.59;4988033;28;20456;-80
2022/06/02 10:56:45;;;;;;;1.27;1.17;;;22.50;42.70;;;21.87;32.60;98289.34;4993401;28;20463;-79
2022/06/02 11:00:03;;;;;;;3.53;2.30;;;22.60;42.50;;;21.82;32.55;98295.69;4982475;28;20557;-78
2022/06/02 11:03:31;;;;;;;2.67;1.80;;;22.70;42.20;;;21.78;33.06;98294.63;4963364;28;20464;-81
2022/06/02 11:06:49;;;;;;;1.83;1.63;;;22.50;42.50;;;21.04;32.88;98292.38;4955706;28;20465;-80
2022/06/02 11:09:54;;;;;;;1.93;1.47;;;22.10;41.60;;;21.04;34.08;98292.38;4994785;28;20582;-70
2022/06/02 11:13:32;;;;;;;2.70;1.80;;;21.90;42.40;;;20.84;34.17;98288.53;4979282;28;20468;-73
2022/06/02 11:16:50;;;;;;;2.47;2.27;;;21.60;42.50;;;20.79;34.04;98280.28;4972518;28;20546;-72
2022/06/02 11:20:33;;;;;;;4.13;1.80;;;21.80;42.80;;;21.55;33.33;98283.16;4990315;28;20462;-73
2022/06/02 11:23:59;;;;;;;4.10;1.70;;;22.10;42.70;;;21.54;34.07;98286.19;4986737;28;20465;-75
2022/06/02 11:26:58;;;;;;;2.00;1.80;;;22.40;43.10;;;21.54;33.76;98283.44;4961937;28;21147;-74
2022/06/02 11:30:07;;;;;;;2.00;1.90;;;22.40;42.70;;;21.82;33.59;98281.13;4991421;28;20577;-71
2022/06/02 11:33:32;;;;;;;1.80;1.60;;;22.60;42.90;;;22.31;32.23;98284.97;5006712;28;20556;-74
2022/06/02 11:36:46;;;;;;;5.63;1.90;;;23.00;42.50;;;22.62;30.34;98293.81;5002353;28;21003;-73
2022/06/02 11:39:56;;;;;;;2.97;1.60;;;23.40;41.40;;;22.23;31.02;98283.63;5023778;28;20455;-75
2022/06/02 11:42:47;;;;;;;1.70;1.47;;;23.10;41.10;;;22.27;31.48;98261.84;4989443;28;20504;-75
2022/06/02 11:45:32;;;;;;;1.60;1.50;;;23.10;41.50;;;22.27;31.83;98268.19;4988750;28;20575;-72
2022/06/02 11:48:25;;;;;;;1.90;1.80;;;23.10;41.20;;;22.40;31.33;98263.16;4969506;28;21101;-73
2022/06/02 11:51:33;;;;;;;3.13;1.70;;;23.10;41.10;;;22.57;30.44;98262.75;4971978;28;20455;-71
2022/06/02 11:54:39;;;;;;;2.90;1.30;;;23.20;41.20;;;22.52;30.24;98274.66;4986610;28;20553;-71
2022/06/02 11:57:38;;;;;;;1.50;1.40;;;23.20;40.40;;;22.73;30.04;98269.75;4978371;28;20473;-74
2022/06/02 12:00:45;;;;;;;1.70;1.60;;;23.40;40.50;;;22.06;30.35;98260.09;4974597;28;20518;-72
2022/06/02 12:04:06;;;;;;;2.57;1.40;;;23.00;40.00;;;23.40;29.53;98257.22;4988056;28;20502;-74